sensor_id;sensor_type;location;lat;lon;timestamp;pressure;altitude;pressure_sealevel;temperature;humidity
78679;BME280;67994;59.334;13.528;2024-01-06T00:00:00;101300.0;;;-15.1;66.4
78679;BME280;67994;59.334;13.528;2024-01-06T00:01:00;101300.0;;;-15.5;66.6
78679;BME280;67994;59.334;13.528;2024-01-06T00:02:00;101300.0;;;-15.3;66.5
78679;BME280;67994;59.334;13.528;2024-01-06T00:03:00;101300.0;;;-15.1;66.7
78679;BME280;67994;59.334;13.528;2024-01-06T00:04:00;101300.0;;;-15.2;66.3
78679;BME280;67994;59.334;13.528;2024-01-06T00:05:00;101300.0;;;-15.1;66.2
78679;BME280;67994;59.334;13.528;2024-01-06T00:06:00;101300.0;;;-15.1;66.0
78679;BME280;67994;59.334;13.528;2024-01-06T00:07:00;101300.0;;;-15.3;66.3
78679;BME280;67994;59.334;13.528;2024-01-06T00:08:00;101300.0;;;-15.5;66.3
78679;BME280;67994;59.334;13.528;2024-01-06T00:09:00;101300.0;;;-15.3;66.1
78679;BME280;67994;59.334;13.528;2024-01-06T00:10:00;101300.0;;;-15.6;66.7
78679;BME280;67994;59.334;13.528;2024-01-06T00:11:00;101300.0;;;-15.6;67.1
78679;BME280;67994;59.334;13.528;2024-01-06T00:12:00;101300.0;;;-15.7;67.3
78679;BME280;67994;59.334;13.528;2024-01-06T00:13:00;101300.0;;;-15.6;67.4
78679;BME280;67994;59.334;13.528;2024-01-06T00:14:00;101300.0;;;-15.7;67.5
78679;BME280;67994;59.334;13.528;2024-01-06T00:15:00;101300.0;;;-15.8;67.7
78679;BME280;67994;59.334;13.528;2024-01-06T00:16:00;101300.0;;;-15.9;68.2
78679;BME280;67994;59.334;13.528;2024-01-06T00:17:00;101300.0;;;-15.9;68.0
78679;BME280;67994;59.334;13.528;2024-01-06T00:18:00;101300.0;;;-15.8;68.3
78679;BME280;67994;59.334;13.528;2024-01-06T00:19:00;101300.0;;;-15.8;68.0
78679;BME280;67994;59.334;13.528;2024-01-06T00:20:00;101300.0;;;-15.6;68.1
78679;BME280;67994;59.334;13.528;2024-01-06T00:21:00;101300.0;;;-15.7;67.8
78679;BME280;67994;59.334;13.528;2024-01-06T00:22:00;101300.0;;;-15.9;68.1
78679;BME280;67994;59.334;13.528;2024-01-06T00:23:00;101300.0;;;-15.8;68.1
78679;BME280;67994;59.334;13.528;2024-01-06T00:24:00;101300.0;;;-15.6;67.8
78679;BME280;67994;59.334;13.528;2024-01-06T00:25:00;101300.0;;;-15.5;67.8
78679;BME280;67994;59.334;13.528;2024-01-06T00:26:00;101300.0;;;-15.5;67.6
78679;BME280;67994;59.334;13.528;2024-01-06T00:27:00;101300.0;;;-15.5;67.3
78679;BME280;67994;59.334;13.528;2024-01-06T00:28:00;101300.0;;;-15.6;67.5
78679;BME280;67994;59.334;13.528;2024-01-06T00:29:00;101300.0;;;-15.5;67.3
78679;BME280;67994;59.334;13.528;2024-01-06T00:30:00;101300.0;;;-15.7;67.6
78679;BME280;67994;59.334;13.528;2024-01-06T00:31:00;101300.0;;;-15.8;67.5
78679;BME280;67994;59.334;13.528;2024-01-06T00:32:00;101300.0;;;-15.9;67.9
78679;BME280;67994;59.334;13.528;2024-01-06T00:33:00;101300.0;;;-16.0;68.3
78679;BME280;67994;59.334;13.528;2024-01-06T00:34:00;101300.0;;;-16.1;68.4
78679;BME280;67994;59.334;13.528;2024-01-06T00:35:00;101300.0;;;-16.0;68.7
78679;BME280;67994;59.334;13.528;2024-01-06T00:36:00;101300.0;;;-15.7;68.2
78679;BME280;67994;59.334;13.528;2024-01-06T00:37:00;101300.0;;;-15.8;68.4
78679;BME280;67994;59.334;13.528;2024-01-06T00:38:00;101300.0;;;-15.9;67.9
78679;BME280;67994;59.334;13.528;2024-01-06T00:39:00;101300.0;;;-15.7;67.9
78679;BME280;67994;59.334;13.528;2024-01-06T00:40:00;101300.0;;;-15.6;67.6
78679;BME280;67994;59.334;13.528;2024-01-06T00:41:00;101300.0;;;-15.7;67.5
78679;BME280;67994;59.334;13.528;2024-01-06T00:42:00;101300.0;;;-15.8;67.6
78679;BME280;67994;59.334;13.528;2024-01-06T00:43:00;101300.0;;;-15.7;67.3
78679;BME280;67994;59.334;13.528;2024-01-06T00:44:00;101300.0;;;-15.8;67.9
78679;BME280;67994;59.334;13.528;2024-01-06T00:45:00;101300.0;;;-16.0;67.9
78679;BME280;67994;59.334;13.528;2024-01-06T00:46:00;101300.0;;;-15.8;67.9
78679;BME280;67994;59.334;13.528;2024-01-06T00:47:00;101300.0;;;-15.8;67.9
78679;BME280;67994;59.334;13.528;2024-01-06T00:48:00;101300.0;;;-16.0;67.9
78679;BME280;67994;59.334;13.528;2024-01-06T00:49:00;101300.0;;;-15.9;67.7
78679;BME280;67994;59.334;13.528;2024-01-06T00:50:00;101300.0;;;-15.8;68.2
78679;BME280;67994;59.334;13.528;2024-01-06T00:51:00;101300.0;;;-15.8;68.2
78679;BME280;67994;59.334;13.528;2024-01-06T00:52:00;101400.0;;;-15.7;67.9
78679;BME280;67994;59.334;13.528;2024-01-06T00:53:00;101400.0;;;-15.6;67.0
78679;BME280;67994;59.334;13.528;2024-01-06T00:54:00;101400.0;;;-15.6;67.1
78679;BME280;67994;59.334;13.528;2024-01-06T00:55:00;101400.0;;;-15.5;67.1
78679;BME280;67994;59.334;13.528;2024-01-06T00:56:00;101400.0;;;-15.3;66.5
78679;BME280;67994;59.334;13.528;2024-01-06T00:57:00;101400.0;;;-15.4;66.2
78679;BME280;67994;59.334;13.528;2024-01-06T00:58:05;101400.0;;;-15.4;66.0
78679;BME280;67994;59.334;13.528;2024-01-06T00:59:00;101400.0;;;-15.4;65.9
78679;BME280;67994;59.334;13.528;2024-01-06T01:00:00;101400.0;;;-15.4;65.8
78679;BME280;67994;59.334;13.528;2024-01-06T01:01:00;101400.0;;;-15.7;66.2
78679;BME280;67994;59.334;13.528;2024-01-06T01:02:00;101400.0;;;-16.2;66.9
78679;BME280;67994;59.334;13.528;2024-01-06T01:03:00;101400.0;;;-16.1;66.8
78679;BME280;67994;59.334;13.528;2024-01-06T01:04:00;101400.0;;;-15.9;67.2
78679;BME280;67994;59.334;13.528;2024-01-06T01:05:00;101400.0;;;-15.5;66.7
78679;BME280;67994;59.334;13.528;2024-01-06T01:06:00;101400.0;;;-15.3;66.4
78679;BME280;67994;59.334;13.528;2024-01-06T01:07:00;101300.0;;;-15.4;66.1
78679;BME280;67994;59.334;13.528;2024-01-06T01:08:00;101300.0;;;-15.3;65.6
78679;BME280;67994;59.334;13.528;2024-01-06T01:09:00;101300.0;;;-15.4;65.8
78679;BME280;67994;59.334;13.528;2024-01-06T01:10:00;101300.0;;;-15.5;65.6
78679;BME280;67994;59.334;13.528;2024-01-06T01:11:00;101300.0;;;-15.4;65.7
78679;BME280;67994;59.334;13.528;2024-01-06T01:12:00;101300.0;;;-15.5;65.8
78679;BME280;67994;59.334;13.528;2024-01-06T01:13:00;101300.0;;;-15.7;65.9
78679;BME280;67994;59.334;13.528;2024-01-06T01:14:00;101300.0;;;-15.5;66.0
78679;BME280;67994;59.334;13.528;2024-01-06T01:15:00;101400.0;;;-15.5;65.9
78679;BME280;67994;59.334;13.528;2024-01-06T01:16:00;101400.0;;;-15.4;65.5
78679;BME280;67994;59.334;13.528;2024-01-06T01:17:00;101400.0;;;-15.6;65.6
78679;BME280;67994;59.334;13.528;2024-01-06T01:18:00;101400.0;;;-15.4;65.5
78679;BME280;67994;59.334;13.528;2024-01-06T01:19:00;101400.0;;;-15.4;65.5
78679;BME280;67994;59.334;13.528;2024-01-06T01:20:00;101400.0;;;-15.7;65.5
78679;BME280;67994;59.334;13.528;2024-01-06T01:21:00;101400.0;;;-15.7;65.5
78679;BME280;67994;59.334;13.528;2024-01-06T01:22:00;101400.0;;;-15.5;65.6
78679;BME280;67994;59.334;13.528;2024-01-06T01:23:00;101400.0;;;-15.6;65.7
78679;BME280;67994;59.334;13.528;2024-01-06T01:24:00;101400.0;;;-15.3;65.3
78679;BME280;67994;59.334;13.528;2024-01-06T01:25:00;101400.0;;;-15.4;64.9
78679;BME280;67994;59.334;13.528;2024-01-06T01:26:00;101400.0;;;-15.2;64.7
78679;BME280;67994;59.334;13.528;2024-01-06T01:27:00;101400.0;;;-15.3;64.4
78679;BME280;67994;59.334;13.528;2024-01-06T01:28:00;101400.0;;;-15.3;64.6
78679;BME280;67994;59.334;13.528;2024-01-06T01:29:00;101400.0;;;-15.2;64.4
78679;BME280;67994;59.334;13.528;2024-01-06T01:30:00;101400.0;;;-15.3;64.1
78679;BME280;67994;59.334;13.528;2024-01-06T01:31:00;101400.0;;;-15.4;64.6
78679;BME280;67994;59.334;13.528;2024-01-06T01:32:00;101400.0;;;-15.3;64.7
78679;BME280;67994;59.334;13.528;2024-01-06T01:33:00;101400.0;;;-15.8;64.7
78679;BME280;67994;59.334;13.528;2024-01-06T01:34:00;101400.0;;;-15.6;64.9
78679;BME280;67994;59.334;13.528;2024-01-06T01:35:00;101400.0;;;-15.7;65.1
78679;BME280;67994;59.334;13.528;2024-01-06T01:36:00;101400.0;;;-15.7;65.1
78679;BME280;67994;59.334;13.528;2024-01-06T01:37:00;101400.0;;;-15.5;64.8
78679;BME280;67994;59.334;13.528;2024-01-06T01:38:00;101400.0;;;-15.9;65.3
78679;BME280;67994;59.334;13.528;2024-01-06T01:39:00;101400.0;;;-15.7;65.1
78679;BME280;67994;59.334;13.528;2024-01-06T01:40:00;101400.0;;;-15.8;65.3
78679;BME280;67994;59.334;13.528;2024-01-06T01:41:00;101400.0;;;-15.5;65.3
78679;BME280;67994;59.334;13.528;2024-01-06T01:42:00;101400.0;;;-15.3;65.0
78679;BME280;67994;59.334;13.528;2024-01-06T01:43:00;101400.0;;;-15.5;64.9
78679;BME280;67994;59.334;13.528;2024-01-06T01:44:00;101400.0;;;-15.6;64.6
78679;BME280;67994;59.334;13.528;2024-01-06T01:45:00;101400.0;;;-15.6;65.0
78679;BME280;67994;59.334;13.528;2024-01-06T01:46:00;101400.0;;;-15.5;64.9
78679;BME280;67994;59.334;13.528;2024-01-06T01:47:00;101400.0;;;-15.5;64.6
78679;BME280;67994;59.334;13.528;2024-01-06T01:48:00;101400.0;;;-15.5;64.5
78679;BME280;67994;59.334;13.528;2024-01-06T01:49:01;101400.0;;;-15.6;64.5
78679;BME280;67994;59.334;13.528;2024-01-06T01:50:00;101400.0;;;-15.7;64.7
78679;BME280;67994;59.334;13.528;2024-01-06T01:51:00;101400.0;;;-15.7;64.7
78679;BME280;67994;59.334;13.528;2024-01-06T01:52:00;101400.0;;;-15.8;65.2
78679;BME280;67994;59.334;13.528;2024-01-06T01:53:00;101400.0;;;-15.8;65.1
78679;BME280;67994;59.334;13.528;2024-01-06T01:54:01;101400.0;;;-15.9;65.0
78679;BME280;67994;59.334;13.528;2024-01-06T01:55:00;101400.0;;;-15.6;65.2
78679;BME280;67994;59.334;13.528;2024-01-06T01:56:00;101400.0;;;-15.4;64.7
78679;BME280;67994;59.334;13.528;2024-01-06T01:57:01;101400.0;;;-15.5;64.6
78679;BME280;67994;59.334;13.528;2024-01-06T01:58:00;101400.0;;;-15.4;63.9
78679;BME280;67994;59.334;13.528;2024-01-06T01:59:01;101400.0;;;-15.5;64.0
78679;BME280;67994;59.334;13.528;2024-01-06T02:00:00;101400.0;;;-15.5;64.0
78679;BME280;67994;59.334;13.528;2024-01-06T02:01:00;101400.0;;;-15.8;64.3
78679;BME280;67994;59.334;13.528;2024-01-06T02:02:01;101400.0;;;-15.9;64.6
78679;BME280;67994;59.334;13.528;2024-01-06T02:03:00;101400.0;;;-15.8;64.8
78679;BME280;67994;59.334;13.528;2024-01-06T02:04:00;101400.0;;;-15.5;64.7
78679;BME280;67994;59.334;13.528;2024-01-06T02:05:00;101400.0;;;-15.6;64.9
78679;BME280;67994;59.334;13.528;2024-01-06T02:06:00;101400.0;;;-15.5;64.3
78679;BME280;67994;59.334;13.528;2024-01-06T02:07:00;101400.0;;;-15.2;64.1
78679;BME280;67994;59.334;13.528;2024-01-06T02:08:00;101400.0;;;-15.3;64.1
78679;BME280;67994;59.334;13.528;2024-01-06T02:09:00;101400.0;;;-15.5;63.9
78679;BME280;67994;59.334;13.528;2024-01-06T02:10:00;101400.0;;;-15.4;63.7
78679;BME280;67994;59.334;13.528;2024-01-06T02:11:00;101400.0;;;-15.5;64.2
78679;BME280;67994;59.334;13.528;2024-01-06T02:12:00;101400.0;;;-15.4;63.9
78679;BME280;67994;59.334;13.528;2024-01-06T02:13:07;101400.0;;;-15.3;63.7
78679;BME280;67994;59.334;13.528;2024-01-06T02:14:00;101400.0;;;-15.3;63.2
78679;BME280;67994;59.334;13.528;2024-01-06T02:15:00;101400.0;;;-15.4;63.2
78679;BME280;67994;59.334;13.528;2024-01-06T02:16:00;101400.0;;;-15.3;63.5
78679;BME280;67994;59.334;13.528;2024-01-06T02:17:00;101400.0;;;-15.2;63.3
78679;BME280;67994;59.334;13.528;2024-01-06T02:18:00;101400.0;;;-15.3;63.0
78679;BME280;67994;59.334;13.528;2024-01-06T02:19:00;101400.0;;;-15.2;62.7
78679;BME280;67994;59.334;13.528;2024-01-06T02:20:00;101400.0;;;-15.2;62.7
78679;BME280;67994;59.334;13.528;2024-01-06T02:21:01;101400.0;;;-15.4;63.0
78679;BME280;67994;59.334;13.528;2024-01-06T02:22:00;101400.0;;;-15.6;63.3
78679;BME280;67994;59.334;13.528;2024-01-06T02:23:00;101400.0;;;-15.6;63.5
78679;BME280;67994;59.334;13.528;2024-01-06T02:24:00;101400.0;;;-15.7;64.2
78679;BME280;67994;59.334;13.528;2024-01-06T02:25:00;101400.0;;;-15.5;63.5
78679;BME280;67994;59.334;13.528;2024-01-06T02:26:00;101400.0;;;-15.8;63.8
78679;BME280;67994;59.334;13.528;2024-01-06T02:27:00;101400.0;;;-16.1;64.7
78679;BME280;67994;59.334;13.528;2024-01-06T02:28:00;101400.0;;;-16.0;64.7
78679;BME280;67994;59.334;13.528;2024-01-06T02:29:00;101400.0;;;-15.8;64.8
78679;BME280;67994;59.334;13.528;2024-01-06T02:30:00;101400.0;;;-15.7;65.1
78679;BME280;67994;59.334;13.528;2024-01-06T02:31:00;101400.0;;;-15.9;64.6
78679;BME280;67994;59.334;13.528;2024-01-06T02:32:00;101400.0;;;-15.8;65.2
78679;BME280;67994;59.334;13.528;2024-01-06T02:33:00;101400.0;;;-15.6;64.3
78679;BME280;67994;59.334;13.528;2024-01-06T02:34:00;101400.0;;;-15.6;64.3
78679;BME280;67994;59.334;13.528;2024-01-06T02:35:00;101400.0;;;-15.8;64.7
78679;BME280;67994;59.334;13.528;2024-01-06T02:36:00;101400.0;;;-15.5;64.5
78679;BME280;67994;59.334;13.528;2024-01-06T02:37:00;101400.0;;;-15.8;64.1
78679;BME280;67994;59.334;13.528;2024-01-06T02:38:00;101400.0;;;-15.7;64.7
78679;BME280;67994;59.334;13.528;2024-01-06T02:39:00;101400.0;;;-15.7;64.4
78679;BME280;67994;59.334;13.528;2024-01-06T02:40:00;101400.0;;;-15.7;64.8
78679;BME280;67994;59.334;13.528;2024-01-06T02:41:00;101400.0;;;-15.7;63.9
78679;BME280;67994;59.334;13.528;2024-01-06T02:42:00;101400.0;;;-15.7;63.9
78679;BME280;67994;59.334;13.528;2024-01-06T02:43:00;101400.0;;;-15.6;63.7
78679;BME280;67994;59.334;13.528;2024-01-06T02:44:00;101400.0;;;-15.2;63.2
78679;BME280;67994;59.334;13.528;2024-01-06T02:45:00;101400.0;;;-15.2;63.2
78679;BME280;67994;59.334;13.528;2024-01-06T02:46:00;101400.0;;;-15.1;63.2
78679;BME280;67994;59.334;13.528;2024-01-06T02:47:00;101400.0;;;-15.2;62.5
78679;BME280;67994;59.334;13.528;2024-01-06T02:48:00;101400.0;;;-15.4;63.0
78679;BME280;67994;59.334;13.528;2024-01-06T02:49:00;101400.0;;;-15.6;63.1
78679;BME280;67994;59.334;13.528;2024-01-06T02:50:00;101400.0;;;-15.8;63.6
78679;BME280;67994;59.334;13.528;2024-01-06T02:51:00;101400.0;;;-15.8;63.7
78679;BME280;67994;59.334;13.528;2024-01-06T02:52:00;101400.0;;;-16.0;64.4
78679;BME280;67994;59.334;13.528;2024-01-06T02:53:00;101400.0;;;-16.0;64.1
78679;BME280;67994;59.334;13.528;2024-01-06T02:54:00;101400.0;;;-15.8;64.0
78679;BME280;67994;59.334;13.528;2024-01-06T02:55:00;101400.0;;;-15.8;64.2
78679;BME280;67994;59.334;13.528;2024-01-06T02:56:00;101400.0;;;-15.9;64.2
78679;BME280;67994;59.334;13.528;2024-01-06T02:57:00;101400.0;;;-16.0;64.3
78679;BME280;67994;59.334;13.528;2024-01-06T02:58:00;101400.0;;;-15.8;64.2
78679;BME280;67994;59.334;13.528;2024-01-06T02:59:00;101400.0;;;-15.9;64.1
78679;BME280;67994;59.334;13.528;2024-01-06T03:00:00;101400.0;;;-15.8;64.2
78679;BME280;67994;59.334;13.528;2024-01-06T03:01:00;101400.0;;;-16.1;64.4
78679;BME280;67994;59.334;13.528;2024-01-06T03:02:01;101400.0;;;-16.2;64.4
78679;BME280;67994;59.334;13.528;2024-01-06T03:03:00;101400.0;;;-16.3;64.6
78679;BME280;67994;59.334;13.528;2024-01-06T03:04:00;101400.0;;;-16.3;65.2
78679;BME280;67994;59.334;13.528;2024-01-06T03:05:00;101400.0;;;-16.5;64.9
78679;BME280;67994;59.334;13.528;2024-01-06T03:06:00;101400.0;;;-16.0;64.7
78679;BME280;67994;59.334;13.528;2024-01-06T03:07:00;101400.0;;;-15.7;64.4
78679;BME280;67994;59.334;13.528;2024-01-06T03:08:00;101400.0;;;-15.7;64.0
78679;BME280;67994;59.334;13.528;2024-01-06T03:09:00;101400.0;;;-15.8;63.9
78679;BME280;67994;59.334;13.528;2024-01-06T03:10:00;101400.0;;;-15.6;63.5
78679;BME280;67994;59.334;13.528;2024-01-06T03:11:00;101400.0;;;-15.7;63.5
78679;BME280;67994;59.334;13.528;2024-01-06T03:12:00;101400.0;;;-15.8;63.2
78679;BME280;67994;59.334;13.528;2024-01-06T03:13:00;101400.0;;;-15.8;63.0
78679;BME280;67994;59.334;13.528;2024-01-06T03:14:00;101400.0;;;-16.0;63.1
78679;BME280;67994;59.334;13.528;2024-01-06T03:15:00;101400.0;;;-15.9;63.0
78679;BME280;67994;59.334;13.528;2024-01-06T03:16:03;101400.0;;;-16.0;63.2
78679;BME280;67994;59.334;13.528;2024-01-06T03:17:00;101400.0;;;-16.0;63.0
78679;BME280;67994;59.334;13.528;2024-01-06T03:18:00;101400.0;;;-16.0;63.3
78679;BME280;67994;59.334;13.528;2024-01-06T03:19:00;101400.0;;;-16.1;63.1
78679;BME280;67994;59.334;13.528;2024-01-06T03:20:00;101400.0;;;-16.1;63.3
78679;BME280;67994;59.334;13.528;2024-01-06T03:21:00;101400.0;;;-16.0;63.2
78679;BME280;67994;59.334;13.528;2024-01-06T03:22:00;101400.0;;;-16.1;63.5
78679;BME280;67994;59.334;13.528;2024-01-06T03:23:00;101400.0;;;-16.2;63.3
78679;BME280;67994;59.334;13.528;2024-01-06T03:24:00;101400.0;;;-16.1;63.1
78679;BME280;67994;59.334;13.528;2024-01-06T03:25:00;101400.0;;;-16.1;62.7
78679;BME280;67994;59.334;13.528;2024-01-06T03:26:05;101400.0;;;-16.2;63.2
78679;BME280;67994;59.334;13.528;2024-01-06T03:27:00;101400.0;;;-16.2;63.3
78679;BME280;67994;59.334;13.528;2024-01-06T03:28:01;101400.0;;;-16.2;63.1
78679;BME280;67994;59.334;13.528;2024-01-06T03:29:00;101400.0;;;-16.3;63.3
78679;BME280;67994;59.334;13.528;2024-01-06T03:30:00;101400.0;;;-16.0;63.0
78679;BME280;67994;59.334;13.528;2024-01-06T03:31:00;101400.0;;;-15.9;63.3
78679;BME280;67994;59.334;13.528;2024-01-06T03:32:00;101400.0;;;-16.2;63.3
78679;BME280;67994;59.334;13.528;2024-01-06T03:33:00;101400.0;;;-16.1;62.9
78679;BME280;67994;59.334;13.528;2024-01-06T03:34:00;101400.0;;;-16.1;62.9
78679;BME280;67994;59.334;13.528;2024-01-06T03:35:00;101400.0;;;-15.9;62.6
78679;BME280;67994;59.334;13.528;2024-01-06T03:36:04;101400.0;;;-15.9;62.8
78679;BME280;67994;59.334;13.528;2024-01-06T03:37:00;101400.0;;;-15.7;62.4
78679;BME280;67994;59.334;13.528;2024-01-06T03:38:00;101400.0;;;-15.8;62.6
78679;BME280;67994;59.334;13.528;2024-01-06T03:39:00;101400.0;;;-16.0;62.3
78679;BME280;67994;59.334;13.528;2024-01-06T03:40:00;101400.0;;;-16.1;62.0
78679;BME280;67994;59.334;13.528;2024-01-06T03:41:00;101400.0;;;-16.1;62.1
78679;BME280;67994;59.334;13.528;2024-01-06T03:42:00;101400.0;;;-16.2;61.8
78679;BME280;67994;59.334;13.528;2024-01-06T03:43:00;101400.0;;;-16.2;62.3
78679;BME280;67994;59.334;13.528;2024-01-06T03:44:00;101400.0;;;-16.3;62.7
78679;BME280;67994;59.334;13.528;2024-01-06T03:45:00;101400.0;;;-16.4;62.6
78679;BME280;67994;59.334;13.528;2024-01-06T03:46:00;101400.0;;;-16.3;62.8
78679;BME280;67994;59.334;13.528;2024-01-06T03:47:00;101400.0;;;-16.1;62.7
78679;BME280;67994;59.334;13.528;2024-01-06T03:48:00;101400.0;;;-16.1;62.7
78679;BME280;67994;59.334;13.528;2024-01-06T03:49:00;101400.0;;;-16.3;62.6
78679;BME280;67994;59.334;13.528;2024-01-06T03:50:00;101400.0;;;-16.5;62.6
78679;BME280;67994;59.334;13.528;2024-01-06T03:51:02;101400.0;;;-16.5;62.9
78679;BME280;67994;59.334;13.528;2024-01-06T03:52:00;101400.0;;;-16.4;62.6
78679;BME280;67994;59.334;13.528;2024-01-06T03:53:00;101400.0;;;-16.4;62.6
78679;BME280;67994;59.334;13.528;2024-01-06T03:54:00;101400.0;;;-16.2;62.7
78679;BME280;67994;59.334;13.528;2024-01-06T03:55:00;101400.0;;;-16.4;63.0
78679;BME280;67994;59.334;13.528;2024-01-06T03:56:00;101400.0;;;-16.2;63.0
78679;BME280;67994;59.334;13.528;2024-01-06T03:57:00;101400.0;;;-16.2;62.5
78679;BME280;67994;59.334;13.528;2024-01-06T03:58:00;101400.0;;;-16.4;62.5
78679;BME280;67994;59.334;13.528;2024-01-06T03:59:00;101400.0;;;-16.4;62.5
78679;BME280;67994;59.334;13.528;2024-01-06T04:00:00;101400.0;;;-16.6;62.4
78679;BME280;67994;59.334;13.528;2024-01-06T04:01:00;101400.0;;;-16.8;62.6
78679;BME280;67994;59.334;13.528;2024-01-06T04:02:00;101400.0;;;-16.6;62.4
78679;BME280;67994;59.334;13.528;2024-01-06T04:03:00;101400.0;;;-16.6;62.7
78679;BME280;67994;59.334;13.528;2024-01-06T04:04:00;101400.0;;;-16.4;63.1
78679;BME280;67994;59.334;13.528;2024-01-06T04:05:00;101400.0;;;-16.2;62.7
78679;BME280;67994;59.334;13.528;2024-01-06T04:06:00;101400.0;;;-16.4;62.5
78679;BME280;67994;59.334;13.528;2024-01-06T04:07:00;101400.0;;;-16.5;62.3
78679;BME280;67994;59.334;13.528;2024-01-06T04:08:00;101400.0;;;-16.6;62.3
78679;BME280;67994;59.334;13.528;2024-01-06T04:09:00;101400.0;;;-16.6;62.3
78679;BME280;67994;59.334;13.528;2024-01-06T04:10:00;101400.0;;;-16.4;62.1
78679;BME280;67994;59.334;13.528;2024-01-06T04:11:00;101400.0;;;-16.4;62.2
78679;BME280;67994;59.334;13.528;2024-01-06T04:12:00;101400.0;;;-16.4;62.2
78679;BME280;67994;59.334;13.528;2024-01-06T04:13:00;101400.0;;;-16.6;61.9
78679;BME280;67994;59.334;13.528;2024-01-06T04:14:00;101400.0;;;-16.5;62.0
78679;BME280;67994;59.334;13.528;2024-01-06T04:15:00;101400.0;;;-16.4;62.0
78679;BME280;67994;59.334;13.528;2024-01-06T04:16:00;101400.0;;;-16.5;61.9
78679;BME280;67994;59.334;13.528;2024-01-06T04:17:00;101400.0;;;-16.4;61.9
78679;BME280;67994;59.334;13.528;2024-01-06T04:18:01;101400.0;;;-16.3;61.9
78679;BME280;67994;59.334;13.528;2024-01-06T04:19:00;101400.0;;;-16.5;61.8
78679;BME280;67994;59.334;13.528;2024-01-06T04:20:00;101400.0;;;-16.6;62.0
78679;BME280;67994;59.334;13.528;2024-01-06T04:21:00;101400.0;;;-16.4;61.3
78679;BME280;67994;59.334;13.528;2024-01-06T04:22:00;101400.0;;;-16.4;61.6
78679;BME280;67994;59.334;13.528;2024-01-06T04:23:00;101400.0;;;-16.6;61.8
78679;BME280;67994;59.334;13.528;2024-01-06T04:24:00;101400.0;;;-16.7;61.9
78679;BME280;67994;59.334;13.528;2024-01-06T04:25:00;101400.0;;;-16.7;62.3
78679;BME280;67994;59.334;13.528;2024-01-06T04:26:00;101400.0;;;-16.6;62.0
78679;BME280;67994;59.334;13.528;2024-01-06T04:27:00;101400.0;;;-16.5;62.1
78679;BME280;67994;59.334;13.528;2024-01-06T04:28:00;101400.0;;;-16.5;62.0
78679;BME280;67994;59.334;13.528;2024-01-06T04:29:00;101400.0;;;-16.5;61.8
78679;BME280;67994;59.334;13.528;2024-01-06T04:30:00;101400.0;;;-16.5;61.7
78679;BME280;67994;59.334;13.528;2024-01-06T04:31:00;101400.0;;;-16.4;61.7
78679;BME280;67994;59.334;13.528;2024-01-06T04:32:00;101400.0;;;-16.4;61.7
78679;BME280;67994;59.334;13.528;2024-01-06T04:33:00;101400.0;;;-16.2;61.6
78679;BME280;67994;59.334;13.528;2024-01-06T04:34:00;101400.0;;;-16.5;62.1
78679;BME280;67994;59.334;13.528;2024-01-06T04:35:00;101400.0;;;-16.8;61.7
78679;BME280;67994;59.334;13.528;2024-01-06T04:36:00;101400.0;;;-16.7;61.5
78679;BME280;67994;59.334;13.528;2024-01-06T04:37:00;101400.0;;;-16.7;62.0
78679;BME280;67994;59.334;13.528;2024-01-06T04:38:00;101400.0;;;-16.9;62.5
78679;BME280;67994;59.334;13.528;2024-01-06T04:39:00;101400.0;;;-16.7;62.1
78679;BME280;67994;59.334;13.528;2024-01-06T04:40:00;101400.0;;;-16.8;62.1
78679;BME280;67994;59.334;13.528;2024-01-06T04:41:00;101400.0;;;-16.7;62.3
78679;BME280;67994;59.334;13.528;2024-01-06T04:42:00;101400.0;;;-16.6;62.2
78679;BME280;67994;59.334;13.528;2024-01-06T04:43:00;101400.0;;;-16.8;62.5
78679;BME280;67994;59.334;13.528;2024-01-06T04:44:00;101400.0;;;-16.8;62.3
78679;BME280;67994;59.334;13.528;2024-01-06T04:45:00;101400.0;;;-16.7;62.2
78679;BME280;67994;59.334;13.528;2024-01-06T04:46:00;101400.0;;;-16.6;62.0
78679;BME280;67994;59.334;13.528;2024-01-06T04:47:00;101400.0;;;-16.6;62.2
78679;BME280;67994;59.334;13.528;2024-01-06T04:48:00;101400.0;;;-16.6;62.0
78679;BME280;67994;59.334;13.528;2024-01-06T04:49:00;101400.0;;;-16.6;61.8
78679;BME280;67994;59.334;13.528;2024-01-06T04:50:00;101400.0;;;-16.7;61.9
78679;BME280;67994;59.334;13.528;2024-01-06T04:51:00;101400.0;;;-16.8;62.2
78679;BME280;67994;59.334;13.528;2024-01-06T04:52:00;101500.0;;;-16.8;62.2
78679;BME280;67994;59.334;13.528;2024-01-06T04:53:00;101500.0;;;-16.8;62.2
78679;BME280;67994;59.334;13.528;2024-01-06T04:54:00;101500.0;;;-16.8;62.1
78679;BME280;67994;59.334;13.528;2024-01-06T04:55:00;101500.0;;;-16.9;62.0
78679;BME280;67994;59.334;13.528;2024-01-06T04:56:00;101500.0;;;-16.9;62.0
78679;BME280;67994;59.334;13.528;2024-01-06T04:57:00;101500.0;;;-16.8;62.4
78679;BME280;67994;59.334;13.528;2024-01-06T04:58:00;101500.0;;;-16.7;62.1
78679;BME280;67994;59.334;13.528;2024-01-06T04:59:00;101500.0;;;-16.7;62.2
78679;BME280;67994;59.334;13.528;2024-01-06T05:00:00;101500.0;;;-16.9;62.6
78679;BME280;67994;59.334;13.528;2024-01-06T05:01:00;101500.0;;;-16.8;62.1
78679;BME280;67994;59.334;13.528;2024-01-06T05:02:00;101500.0;;;-16.7;62.3
78679;BME280;67994;59.334;13.528;2024-01-06T05:03:00;101500.0;;;-16.8;62.2
78679;BME280;67994;59.334;13.528;2024-01-06T05:04:00;101500.0;;;-16.8;62.3
78679;BME280;67994;59.334;13.528;2024-01-06T05:05:00;101500.0;;;-16.7;62.1
78679;BME280;67994;59.334;13.528;2024-01-06T05:06:00;101500.0;;;-16.7;62.0
78679;BME280;67994;59.334;13.528;2024-01-06T05:07:00;101500.0;;;-16.8;62.2
78679;BME280;67994;59.334;13.528;2024-01-06T05:08:00;101500.0;;;-16.8;61.9
78679;BME280;67994;59.334;13.528;2024-01-06T05:09:00;101500.0;;;-16.8;61.9
78679;BME280;67994;59.334;13.528;2024-01-06T05:10:00;101500.0;;;-16.7;61.9
78679;BME280;67994;59.334;13.528;2024-01-06T05:11:00;101500.0;;;-16.6;62.0
78679;BME280;67994;59.334;13.528;2024-01-06T05:12:00;101500.0;;;-16.6;61.8
78679;BME280;67994;59.334;13.528;2024-01-06T05:13:00;101500.0;;;-16.6;61.6
78679;BME280;67994;59.334;13.528;2024-01-06T05:14:00;101500.0;;;-16.7;61.5
78679;BME280;67994;59.334;13.528;2024-01-06T05:15:00;101500.0;;;-16.7;61.8
78679;BME280;67994;59.334;13.528;2024-01-06T05:16:00;101500.0;;;-16.6;61.4
78679;BME280;67994;59.334;13.528;2024-01-06T05:17:00;101500.0;;;-16.6;61.4